Nautilus — OUYX2 — position and weather

sailwx.info

Track history (hours):
 
Tides and Currents Weather Stations Pressure Air Temp Water Temp Dewpoint Dewpoint Depression Visibility Wind Speed Wind Dir Waves Ship Positions

Nautilus

Last reported at 2015-May-25 01:17 UTC. Time now 2015-May-25 23:34 UTC.
Position N 59°12' E 021°42'.

Length 120 m; draft 6.7 m.

Type: Ship. MMSI: 219425000.

Date/timePositionNaut miles runAvg speedWind from/ knotsBaromVisibWave heightAir tempDewpointWater temp
2015-May-25 01:17N 59°12' E 021°42'2411.7
2015-May-24 23:14N 59°26' E 022°19'1311.3
2015-May-24 22:06N 59°32' E 022°42'1912.0
2015-May-24 20:30N 59°37' E 023°18'1112.0
2015-May-24 19:33N 59°40' E 023°40'1212.1
2015-May-24 18:33N 59°44' E 024°03'1212.1
2015-May-24 17:33N 59°47' E 024°26'5711.3
2015-May-24 12:33N 60°06' E 026°12'1211.8
2015-May-24 11:33N 60°16' E 026°27'1211.9
2015-May-24 10:33N 60°23' E 026°46'1211.9
2015-May-24 09:33N 60°21' E 027°10'9 8.8
2015-May-24 08:33N 60°30' E 027°13'2 1.8
2015-May-24 07:32N 60°31' E 027°10'0 0.0
2015-May-24 06:26N 60°31' E 027°10'0 0.0
2015-May-24 05:29N 60°31' E 027°10'0 0.0
2015-May-24 04:32N 60°31' E 027°10'0 0.0
2015-May-24 03:32N 60°31' E 027°10'0 0.0
2015-May-24 02:32N 60°31' E 027°10'0 0.0
2015-May-24 01:32N 60°31' E 027°10'0 0.0
2015-May-24 00:32N 60°31' E 027°10'0 0.0
2015-May-23 23:32N 60°31' E 027°10'0 0.0
2015-May-23 22:32N 60°31' E 027°10'0 0.0
2015-May-23 21:32N 60°31' E 027°10'0 0.0
2015-May-23 20:32N 60°31' E 027°10'0 0.0
2015-May-23 19:32N 60°31' E 027°10'0 0.0
2015-May-23 18:32N 60°31' E 027°10'0 0.0
2015-May-23 17:32N 60°31' E 027°10'0 0.0
2015-May-23 16:20N 60°31' E 027°10'0 0.0
2015-May-23 15:32N 60°31' E 027°10'0 0.0
2015-May-23 14:08N 60°31' E 027°10'0 0.0
2015-May-23 13:26N 60°31' E 027°10'0 0.0
2015-May-23 12:32N 60°31' E 027°10'0 0.0
2015-May-23 11:23N 60°31' E 027°10'0 0.0
2015-May-23 10:20N 60°31' E 027°10'0 0.0
2015-May-23 09:32N 60°31' E 027°10'0 0.0
2015-May-23 08:32N 60°31' E 027°10'0 0.0
2015-May-23 07:32N 60°31' E 027°10'0 0.0
2015-May-23 06:32N 60°31' E 027°10'0 0.0
2015-May-23 05:32N 60°31' E 027°10'0 0.0
2015-May-23 04:32N 60°31' E 027°10'0 0.0
2015-May-23 03:32N 60°31' E 027°10'0 0.0
2015-May-23 02:30N 60°31' E 027°10'2 1.9
2015-May-23 01:33N 60°30' E 027°08'1110.6
2015-May-23 00:34N 60°22' E 026°54'1313.1
2015-May-22 23:34N 60°16' E 026°30'1813.4
2015-May-22 22:15N 60°01' E 026°13'1414.1
2015-May-22 21:16N 59°53' E 025°50'2814.6
2015-May-22 19:22N 59°47' E 024°56'1214.7
2015-May-22 18:34N 59°45' E 024°33'1514.6
2015-May-22 17:32N 59°41' E 024°04'1414.6
2015-May-22 16:34N 59°37' E 023°37'23214.5
2015-May-22 00:33N 57°35' E 017°18'1414.0
2015-May-21 23:33N 57°25' E 017°00'1514.7
2015-May-21 22:33N 57°12' E 016°49'1514.7
2015-May-21 21:33N 56°58' E 016°38'70 4.3
2015-May-21 05:26N 55°53' E 015°54'1512.1
2015-May-21 04:09N 55°42' E 015°35'812.8
2015-May-21 03:33N 55°38' E 015°23'1312.9
2015-May-21 02:33N 55°32' E 015°03'1312.8
2015-May-21 01:33N 55°26' E 014°44'1312.7
2015-May-21 00:32N 55°17' E 014°27'1211.8
2015-May-20 23:33N 55°11' E 014°10'1312.5
2015-May-20 22:32N 55°11' E 013°48'1212.6
2015-May-20 21:33N 55°12' E 013°26'1312.7
2015-May-20 20:33N 55°12' E 013°04'1312.8
2015-May-20 19:33N 55°17' E 012°43'1111.0
2015-May-20 18:33N 55°28' E 012°41'1010.1
2015-May-20 17:33N 55°36' E 012°52'9 9.5
2015-May-20 16:33N 55°45' E 012°50'1212.1
2015-May-20 15:33N 55°55' E 012°38'1010.2
2015-May-20 14:33N 56°05' E 012°35'1212.3
2015-May-20 13:33N 56°12' E 012°16'1312.2
2015-May-20 12:30N 56°10' E 011°53'24 0.5
2015-May-18 09:32N 56°33' E 011°39'1212.0
2015-May-18 08:33N 56°43' E 011°50'1211.6
2015-May-18 07:33N 56°55' E 011°46'1313.2
2015-May-18 06:33N 57°07' E 011°38'1313.4
2015-May-18 05:33N 57°20' E 011°30'1313.4
2015-May-18 04:34N 57°32' E 011°22'1212.5
2015-May-18 03:33N 57°45' E 011°20'1211.9
2015-May-18 02:33N 57°57' E 011°17'1110.7
2015-May-18 01:33N 58°07' E 011°14'1010.1
2015-May-18 00:33N 58°17' E 011°17'6 6.1
2015-May-17 23:33N 58°21' E 011°26'0 0.0
2015-May-17 22:33N 58°21' E 011°26'0 0.0
2015-May-17 21:33N 58°21' E 011°26'0 0.0
2015-May-17 20:30N 58°21' E 011°26'0 0.0
2015-May-17 19:33N 58°21' E 011°26'0 0.0
2015-May-17 18:30N 58°21' E 011°26'0 0.0
2015-May-17 17:33N 58°21' E 011°26'0 0.0
2015-May-17 16:33N 58°21' E 011°26'0 0.0
2015-May-17 15:33N 58°21' E 011°26'0 0.0
2015-May-17 14:33N 58°21' E 011°26'0 0.0
2015-May-17 13:33N 58°21' E 011°26'0 0.0
2015-May-17 12:33N 58°21' E 011°26'0 0.0
2015-May-17 11:33N 58°21' E 011°26'0 0.0
2015-May-17 10:33N 58°21' E 011°26'0 0.0
2015-May-17 09:33N 58°21' E 011°26'1 0.8
2015-May-17 08:33N 58°21' E 011°25'3 2.5
2015-May-17 07:33N 58°20' E 011°21'0 0.0
2015-May-17 06:33N 58°20' E 011°21'0 0.0
2015-May-17 05:33N 58°20' E 011°21'0 0.0
2015-May-17 04:33N 58°20' E 011°21'0 0.0
2015-May-17 03:33N 58°20' E 011°21'0 0.0
2015-May-17 02:33N 58°20' E 011°21'0 0.0
2015-May-17 01:30N 58°20' E 011°21'0 0.0
2015-May-17 00:33N 58°20' E 011°21'0 0.0
2015-May-16 23:33N 58°20' E 011°21'0 0.0
2015-May-16 22:30N 58°20' E 011°21'0 0.0
2015-May-16 21:33N 58°20' E 011°21'0 0.0
2015-May-16 20:33N 58°20' E 011°21'0 0.0
2015-May-16 19:33N 58°20' E 011°21'0 0.0
2015-May-16 18:33N 58°20' E 011°21'0 0.0
2015-May-16 17:30N 58°20' E 011°21'0 0.1
2015-May-16 16:30N 58°20' E 011°21'0 0.0
2015-May-16 15:33N 58°20' E 011°21'0 0.0
2015-May-16 14:33N 58°20' E 011°21'0 0.0
2015-May-16 13:33N 58°20' E 011°21'0 0.0
2015-May-16 12:30N 58°20' E 011°21'0 0.0
2015-May-16 11:33N 58°20' E 011°21'0 0.0
2015-May-16 10:33N 58°20' E 011°21'0 0.0
2015-May-16 09:33N 58°20' E 011°21'0 0.0
2015-May-16 08:30N 58°20' E 011°21'0 0.0
2015-May-16 07:33N 58°20' E 011°21'0 0.0
2015-May-16 06:27N 58°20' E 011°21'0 0.0
2015-May-16 05:33N 58°20' E 011°21'0 0.0
2015-May-16 04:33N 58°20' E 011°21'0 0.0
2015-May-16 03:33N 58°20' E 011°21'0 0.0
2015-May-16 02:33N 58°20' E 011°21'0 0.0
2015-May-16 01:30N 58°20' E 011°21'0 0.0
2015-May-16 00:33N 58°20' E 011°21'0 0.0
2015-May-15 23:33N 58°20' E 011°21'0 0.0
2015-May-15 22:33N 58°20' E 011°21'0 0.0
2015-May-15 21:33N 58°20' E 011°21'0 0.0
2015-May-15 20:30N 58°20' E 011°21'0 0.0
2015-May-15 19:33N 58°20' E 011°21'0 0.0
2015-May-15 18:33N 58°20' E 011°21'0 0.0
2015-May-15 17:33N 58°20' E 011°21'0 0.0
2015-May-15 16:30N 58°20' E 011°21'0 0.0
2015-May-15 15:33N 58°20' E 011°21'0 0.0
2015-May-15 14:33N 58°20' E 011°21'4 4.0
2015-May-15 13:33N 58°17' E 011°16'1313.0
2015-May-15 12:33N 58°03' E 011°16'1212.4
2015-May-15 11:33N 57°51' E 011°21'1212.2
2015-May-15 10:33N 57°40' E 011°29'8 8.4
2015-May-15 09:33N 57°36' E 011°43'1 0.7
2015-May-15 08:33N 57°36' E 011°41'0 0.1
2015-May-15 07:33N 57°36' E 011°41'5 5.3
2015-May-15 06:33N 57°31' E 011°38'1413.6
2015-May-15 05:33N 57°18' E 011°49'1313.3
2015-May-15 04:33N 57°06' E 011°58'1413.5
2015-May-15 03:33N 56°53' E 012°05'1313.2
2015-May-15 02:33N 56°40' E 012°12'1312.9
2015-May-15 01:33N 56°28' E 012°19'  
Track history (hours):
 
Tides and Currents Weather Stations Pressure Air Temp Water Temp Dewpoint Dewpoint Depression Visibility Wind Speed Wind Dir Waves Ship Positions

Nautilus

Last reported at 2015-May-25 01:17 UTC. Time now 2015-May-25 23:34 UTC.
Position N 59°12' E 021°42'.

Length 120 m; draft 6.7 m.

Type: Ship. MMSI: 219425000.

Date/timePositionNaut miles runAvg speedWind from/ knotsBaromVisibWave heightAir tempDewpointWater temp
2015-May-25 01:17N 59°12' E 021°42'2411.7
2015-May-24 23:14N 59°26' E 022°19'1311.3
2015-May-24 22:06N 59°32' E 022°42'1912.0
2015-May-24 20:30N 59°37' E 023°18'1112.0
2015-May-24 19:33N 59°40' E 023°40'1212.1
2015-May-24 18:33N 59°44' E 024°03'1212.1
2015-May-24 17:33N 59°47' E 024°26'5711.3
2015-May-24 12:33N 60°06' E 026°12'1211.8
2015-May-24 11:33N 60°16' E 026°27'1211.9
2015-May-24 10:33N 60°23' E 026°46'1211.9
2015-May-24 09:33N 60°21' E 027°10'9 8.8
2015-May-24 08:33N 60°30' E 027°13'2 1.8
2015-May-24 07:32N 60°31' E 027°10'0 0.0
2015-May-24 06:26N 60°31' E 027°10'0 0.0
2015-May-24 05:29N 60°31' E 027°10'0 0.0
2015-May-24 04:32N 60°31' E 027°10'0 0.0
2015-May-24 03:32N 60°31' E 027°10'0 0.0
2015-May-24 02:32N 60°31' E 027°10'0 0.0
2015-May-24 01:32N 60°31' E 027°10'0 0.0
2015-May-24 00:32N 60°31' E 027°10'0 0.0
2015-May-23 23:32N 60°31' E 027°10'0 0.0
2015-May-23 22:32N 60°31' E 027°10'0 0.0
2015-May-23 21:32N 60°31' E 027°10'0 0.0
2015-May-23 20:32N 60°31' E 027°10'0 0.0
2015-May-23 19:32N 60°31' E 027°10'0 0.0
2015-May-23 18:32N 60°31' E 027°10'0 0.0
2015-May-23 17:32N 60°31' E 027°10'0 0.0
2015-May-23 16:20N 60°31' E 027°10'0 0.0
2015-May-23 15:32N 60°31' E 027°10'0 0.0
2015-May-23 14:08N 60°31' E 027°10'0 0.0
2015-May-23 13:26N 60°31' E 027°10'0 0.0
2015-May-23 12:32N 60°31' E 027°10'0 0.0
2015-May-23 11:23N 60°31' E 027°10'0 0.0
2015-May-23 10:20N 60°31' E 027°10'0 0.0
2015-May-23 09:32N 60°31' E 027°10'0 0.0
2015-May-23 08:32N 60°31' E 027°10'0 0.0
2015-May-23 07:32N 60°31' E 027°10'0 0.0
2015-May-23 06:32N 60°31' E 027°10'0 0.0
2015-May-23 05:32N 60°31' E 027°10'0 0.0
2015-May-23 04:32N 60°31' E 027°10'0 0.0
2015-May-23 03:32N 60°31' E 027°10'0 0.0
2015-May-23 02:30N 60°31' E 027°10'2 1.9
2015-May-23 01:33N 60°30' E 027°08'1110.6
2015-May-23 00:34N 60°22' E 026°54'1313.1
2015-May-22 23:34N 60°16' E 026°30'1813.4
2015-May-22 22:15N 60°01' E 026°13'1414.1
2015-May-22 21:16N 59°53' E 025°50'2814.6
2015-May-22 19:22N 59°47' E 024°56'1214.7
2015-May-22 18:34N 59°45' E 024°33'1514.6
2015-May-22 17:32N 59°41' E 024°04'1414.6
2015-May-22 16:34N 59°37' E 023°37'23214.5
2015-May-22 00:33N 57°35' E 017°18'1414.0
2015-May-21 23:33N 57°25' E 017°00'1514.7
2015-May-21 22:33N 57°12' E 016°49'1514.7
2015-May-21 21:33N 56°58' E 016°38'70 4.3
2015-May-21 05:26N 55°53' E 015°54'1512.1
2015-May-21 04:09N 55°42' E 015°35'812.8
2015-May-21 03:33N 55°38' E 015°23'1312.9
2015-May-21 02:33N 55°32' E 015°03'1312.8
2015-May-21 01:33N 55°26' E 014°44'1312.7
2015-May-21 00:32N 55°17' E 014°27'1211.8
2015-May-20 23:33N 55°11' E 014°10'1312.5
2015-May-20 22:32N 55°11' E 013°48'1212.6
2015-May-20 21:33N 55°12' E 013°26'1312.7
2015-May-20 20:33N 55°12' E 013°04'1312.8
2015-May-20 19:33N 55°17' E 012°43'1111.0
2015-May-20 18:33N 55°28' E 012°41'1010.1
2015-May-20 17:33N 55°36' E 012°52'9 9.5
2015-May-20 16:33N 55°45' E 012°50'1212.1
2015-May-20 15:33N 55°55' E 012°38'1010.2
2015-May-20 14:33N 56°05' E 012°35'1212.3
2015-May-20 13:33N 56°12' E 012°16'1312.2
2015-May-20 12:30N 56°10' E 011°53'24 0.5
2015-May-18 09:32N 56°33' E 011°39'1212.0
2015-May-18 08:33N 56°43' E 011°50'1211.6
2015-May-18 07:33N 56°55' E 011°46'1313.2
2015-May-18 06:33N 57°07' E 011°38'1313.4
2015-May-18 05:33N 57°20' E 011°30'1313.4
2015-May-18 04:34N 57°32' E 011°22'1212.5
2015-May-18 03:33N 57°45' E 011°20'1211.9
2015-May-18 02:33N 57°57' E 011°17'1110.7
2015-May-18 01:33N 58°07' E 011°14'1010.1
2015-May-18 00:33N 58°17' E 011°17'6 6.1
2015-May-17 23:33N 58°21' E 011°26'0 0.0
2015-May-17 22:33N 58°21' E 011°26'0 0.0
2015-May-17 21:33N 58°21' E 011°26'0 0.0
2015-May-17 20:30N 58°21' E 011°26'0 0.0
2015-May-17 19:33N 58°21' E 011°26'0 0.0
2015-May-17 18:30N 58°21' E 011°26'0 0.0
2015-May-17 17:33N 58°21' E 011°26'0 0.0
2015-May-17 16:33N 58°21' E 011°26'0 0.0
2015-May-17 15:33N 58°21' E 011°26'0 0.0
2015-May-17 14:33N 58°21' E 011°26'0 0.0
2015-May-17 13:33N 58°21' E 011°26'0 0.0
2015-May-17 12:33N 58°21' E 011°26'0 0.0
2015-May-17 11:33N 58°21' E 011°26'0 0.0
2015-May-17 10:33N 58°21' E 011°26'0 0.0
2015-May-17 09:33N 58°21' E 011°26'1 0.8
2015-May-17 08:33N 58°21' E 011°25'3 2.5
2015-May-17 07:33N 58°20' E 011°21'0 0.0
2015-May-17 06:33N 58°20' E 011°21'0 0.0
2015-May-17 05:33N 58°20' E 011°21'0 0.0
2015-May-17 04:33N 58°20' E 011°21'0 0.0
2015-May-17 03:33N 58°20' E 011°21'0 0.0
2015-May-17 02:33N 58°20' E 011°21'0 0.0
2015-May-17 01:30N 58°20' E 011°21'0 0.0
2015-May-17 00:33N 58°20' E 011°21'0 0.0
2015-May-16 23:33N 58°20' E 011°21'0 0.0
2015-May-16 22:30N 58°20' E 011°21'0 0.0
2015-May-16 21:33N 58°20' E 011°21'0 0.0
2015-May-16 20:33N 58°20' E 011°21'0 0.0
2015-May-16 19:33N 58°20' E 011°21'0 0.0
2015-May-16 18:33N 58°20' E 011°21'0 0.0
2015-May-16 17:30N 58°20' E 011°21'0 0.1
2015-May-16 16:30N 58°20' E 011°21'0 0.0
2015-May-16 15:33N 58°20' E 011°21'0 0.0
2015-May-16 14:33N 58°20' E 011°21'0 0.0
2015-May-16 13:33N 58°20' E 011°21'0 0.0
2015-May-16 12:30N 58°20' E 011°21'0 0.0
2015-May-16 11:33N 58°20' E 011°21'0 0.0
2015-May-16 10:33N 58°20' E 011°21'0 0.0
2015-May-16 09:33N 58°20' E 011°21'0 0.0
2015-May-16 08:30N 58°20' E 011°21'0 0.0
2015-May-16 07:33N 58°20' E 011°21'0 0.0
2015-May-16 06:27N 58°20' E 011°21'0 0.0
2015-May-16 05:33N 58°20' E 011°21'0 0.0
2015-May-16 04:33N 58°20' E 011°21'0 0.0
2015-May-16 03:33N 58°20' E 011°21'0 0.0
2015-May-16 02:33N 58°20' E 011°21'0 0.0
2015-May-16 01:30N 58°20' E 011°21'0 0.0
2015-May-16 00:33N 58°20' E 011°21'0 0.0
2015-May-15 23:33N 58°20' E 011°21'0 0.0
2015-May-15 22:33N 58°20' E 011°21'0 0.0
2015-May-15 21:33N 58°20' E 011°21'0 0.0
2015-May-15 20:30N 58°20' E 011°21'0 0.0
2015-May-15 19:33N 58°20' E 011°21'0 0.0
2015-May-15 18:33N 58°20' E 011°21'0 0.0
2015-May-15 17:33N 58°20' E 011°21'0 0.0
2015-May-15 16:30N 58°20' E 011°21'0 0.0
2015-May-15 15:33N 58°20' E 011°21'0 0.0
2015-May-15 14:33N 58°20' E 011°21'4 4.0
2015-May-15 13:33N 58°17' E 011°16'1313.0
2015-May-15 12:33N 58°03' E 011°16'1212.4
2015-May-15 11:33N 57°51' E 011°21'1212.2
2015-May-15 10:33N 57°40' E 011°29'8 8.4
2015-May-15 09:33N 57°36' E 011°43'1 0.7
2015-May-15 08:33N 57°36' E 011°41'0 0.1
2015-May-15 07:33N 57°36' E 011°41'5 5.3
2015-May-15 06:33N 57°31' E 011°38'1413.6
2015-May-15 05:33N 57°18' E 011°49'1313.3
2015-May-15 04:33N 57°06' E 011°58'1413.5
2015-May-15 03:33N 56°53' E 012°05'1313.2
2015-May-15 02:33N 56°40' E 012°12'1312.9
2015-May-15 01:33N 56°28' E 012°19'  

Dump ship's entire track history